createdAt,value
2022-10-25T00:01:22.875Z,13.13
2022-10-25T00:06:28.017Z,13.32
2022-10-25T00:11:36.102Z,14.32
2022-10-25T00:16:41.768Z,13.60
2022-10-25T00:21:46.718Z,14.93
2022-10-25T00:26:54.302Z,14.77
2022-10-25T00:32:00.280Z,14.95
2022-10-25T00:37:05.538Z,13.35
2022-10-25T00:42:14.830Z,12.98
2022-10-25T00:47:40.603Z,13.83
2022-10-25T00:52:47.799Z,14.20
2022-10-25T00:57:58.103Z,15.07
2022-10-25T01:03:03.186Z,16.25
2022-10-25T01:08:09.026Z,15.95
2022-10-25T01:13:17.014Z,15.75
2022-10-25T01:18:26.746Z,15.07
2022-10-25T01:23:47.974Z,15.38
2022-10-25T01:29:08.721Z,14.77
2022-10-25T01:34:19.673Z,17.55
2022-10-25T01:39:28.467Z,17.00
2022-10-25T01:44:41.716Z,17.17
2022-10-25T01:49:52.189Z,20.33
2022-10-25T01:54:57.547Z,22.30
2022-10-25T02:00:13.032Z,23.02
2022-10-25T02:05:25.254Z,21.10
2022-10-25T02:10:34.749Z,20.50
2022-10-25T02:15:43.290Z,20.83
2022-10-25T02:20:52.242Z,20.50
2022-10-25T02:25:57.714Z,18.88
2022-10-25T02:31:03.498Z,17.35
2022-10-25T02:36:15.958Z,17.80
2022-10-25T02:41:21.586Z,18.65
2022-10-25T02:46:26.951Z,18.92
2022-10-25T02:51:34.618Z,19.48
2022-10-25T02:56:40.250Z,16.75
2022-10-25T03:01:45.270Z,18.10
2022-10-25T03:06:53.121Z,18.25
2022-10-25T03:11:58.315Z,19.38
2022-10-25T03:17:03.350Z,18.63
2022-10-25T03:22:10.958Z,19.42
2022-10-25T03:27:16.270Z,18.45
2022-10-25T03:32:21.349Z,18.60
2022-10-25T03:37:29.044Z,18.27
2022-10-25T03:42:34.190Z,19.90
2022-10-25T03:47:39.210Z,19.33
2022-10-25T03:52:47.063Z,18.20
2022-10-25T03:57:52.188Z,19.13
2022-10-25T04:03:01.708Z,16.27
2022-10-25T04:08:10.375Z,17.58
2022-10-25T04:13:15.490Z,17.35
2022-10-25T04:18:20.438Z,17.05
2022-10-25T04:23:28.102Z,15.85
2022-10-25T04:28:33.079Z,15.80
2022-10-25T04:33:38.096Z,15.35
2022-10-25T04:38:45.674Z,17.10
2022-10-25T04:43:51.099Z,15.07
2022-10-25T04:48:56.284Z,15.55
2022-10-25T04:54:03.870Z,16.45
2022-10-25T04:59:08.975Z,15.40
2022-10-25T05:04:13.959Z,15.57
2022-10-25T05:09:21.555Z,14.80
2022-10-25T05:14:26.548Z,14.90
2022-10-25T05:19:31.776Z,16.77
2022-10-25T05:24:39.366Z,15.43
2022-10-25T05:29:44.322Z,14.25
2022-10-25T05:34:49.262Z,15.90
2022-10-25T05:39:56.835Z,17.80
2022-10-25T05:45:01.811Z,15.38
2022-10-25T05:50:07.039Z,16.92
2022-10-25T05:55:14.865Z,17.42
2022-10-25T06:00:20.920Z,15.88
2022-10-25T06:05:26.052Z,14.10
2022-10-25T06:10:33.769Z,13.48
2022-10-25T06:15:40.027Z,14.02
2022-10-25T06:20:45.092Z,12.23
2022-10-25T06:25:52.742Z,12.73
2022-10-25T06:30:57.736Z,12.68
2022-10-25T06:36:04.230Z,12.73
2022-10-25T06:41:15.099Z,11.40
2022-10-25T06:46:24.459Z,14.00
2022-10-25T06:51:32.824Z,12.00
2022-10-25T06:56:40.482Z,13.05
2022-10-25T07:01:45.783Z,14.25
2022-10-25T07:06:54.314Z,13.02
2022-10-25T07:12:03.227Z,11.38
2022-10-25T07:17:08.308Z,10.25
2022-10-25T07:22:15.251Z,9.90
2022-10-25T07:27:23.493Z,10.27
2022-10-25T07:32:28.662Z,8.65
2022-10-25T07:37:33.622Z,9.68
2022-10-25T07:42:41.472Z,9.73
2022-10-25T07:47:46.730Z,9.32
2022-10-25T07:52:52.418Z,8.25
2022-10-25T07:58:40.714Z,9.18
2022-10-25T08:09:37.740Z,8.73
2022-10-25T08:14:47.639Z,8.05
2022-10-25T08:25:13.544Z,9.85
2022-10-25T08:30:21.384Z,8.55
2022-10-25T08:35:26.599Z,8.35
2022-10-25T08:40:37.422Z,9.18
2022-10-25T08:45:52.509Z,9.23
2022-10-25T08:51:06.430Z,7.85
2022-10-25T08:56:17.425Z,9.07
2022-10-25T09:01:28.562Z,8.18
2022-10-25T09:06:38.295Z,8.02
2022-10-25T09:17:02.374Z,6.93
2022-10-25T09:22:09.826Z,23.90
2022-10-25T09:27:17.873Z,8.10
2022-10-25T09:32:28.959Z,15.45
2022-10-25T09:37:37.582Z,7.95
2022-10-25T09:42:46.031Z,8.05
2022-10-25T09:47:59.877Z,7.90
2022-10-25T09:53:12.352Z,6.13
2022-10-25T09:58:21.955Z,6.50
2022-10-25T10:03:36.056Z,5.90
2022-10-25T10:08:42.859Z,5.45
2022-10-25T10:13:50.881Z,5.05
2022-10-25T10:19:18.434Z,4.55
2022-10-25T10:24:26.024Z,4.65
2022-10-25T10:29:32.260Z,4.25
2022-10-25T10:34:45.568Z,4.65
2022-10-25T10:39:55.195Z,4.72
2022-10-25T10:45:08.200Z,4.63
2022-10-25T10:50:25.874Z,4.38
2022-10-25T10:55:33.153Z,4.50
2022-10-25T11:00:38.397Z,4.15
2022-10-25T11:05:47.324Z,4.15
2022-10-25T11:10:55.228Z,4.38
2022-10-25T11:16:27.373Z,4.50
2022-10-25T11:22:00.489Z,3.72
2022-10-25T11:27:13.756Z,4.20
2022-10-25T11:32:33.592Z,4.57
2022-10-25T11:37:45.446Z,4.05
2022-10-25T11:43:02.957Z,3.88
2022-10-25T11:48:27.506Z,3.72
2022-10-25T11:54:08.753Z,3.42
2022-10-25T11:59:19.577Z,4.38
2022-10-25T12:04:46.551Z,3.25
2022-10-25T12:10:05.152Z,4.38
2022-10-25T12:15:15.780Z,4.57
2022-10-25T12:20:26.398Z,4.30
2022-10-25T12:25:36.515Z,3.88
2022-10-25T12:30:43.331Z,2.53
2022-10-25T12:35:52.877Z,3.47
2022-10-25T12:46:35.955Z,3.70
2022-10-25T12:51:56.108Z,3.67
2022-10-25T12:57:14.367Z,4.38
2022-10-25T13:02:33.718Z,5.35
2022-10-25T13:07:39.281Z,4.90
2022-10-25T13:12:47.285Z,4.18
2022-10-25T13:18:05.350Z,4.28
2022-10-25T13:23:39.904Z,5.10
2022-10-25T13:28:50.588Z,5.05
2022-10-25T13:34:25.270Z,5.38
2022-10-25T13:39:33.775Z,4.95
2022-10-25T13:44:51.838Z,3.70
2022-10-25T13:49:58.386Z,4.72
2022-10-25T13:55:09.566Z,3.33
2022-10-25T14:00:31.924Z,3.33
2022-10-25T14:06:16.175Z,3.10
2022-10-25T14:11:27.038Z,4.65
2022-10-25T14:16:36.337Z,5.83
2022-10-25T14:21:42.742Z,5.75
2022-10-25T14:27:35.179Z,7.10
2022-10-25T14:32:57.933Z,6.22
2022-10-25T14:43:51.160Z,4.45
2022-10-25T14:49:00.955Z,4.93
2022-10-25T14:54:08.706Z,4.82
2022-10-25T14:59:21.283Z,4.88
2022-10-25T15:04:34.064Z,4.35
2022-10-25T15:09:43.235Z,6.20
2022-10-25T15:14:48.829Z,5.72
2022-10-25T15:20:04.841Z,5.22
2022-10-25T15:25:20.973Z,4.82
2022-10-25T15:30:40.189Z,4.30
2022-10-25T15:35:51.471Z,5.83
2022-10-25T15:40:56.559Z,5.03
2022-10-25T15:46:03.170Z,4.70
2022-10-25T15:51:15.070Z,5.50
2022-10-25T15:56:22.507Z,6.18
2022-10-25T16:01:27.796Z,9.13
2022-10-25T16:06:35.606Z,6.28
2022-10-25T16:11:44.924Z,5.75
2022-10-25T16:16:52.261Z,9.43
2022-10-25T16:21:59.924Z,6.13
2022-10-25T16:27:05.062Z,5.07
2022-10-25T16:32:10.130Z,5.50
2022-10-25T16:37:17.944Z,5.43
2022-10-25T16:42:33.427Z,5.35
2022-10-25T16:47:38.713Z,5.65
2022-10-25T16:52:46.683Z,5.95
2022-10-25T16:57:52.003Z,5.38
2022-10-25T17:02:57.107Z,5.60
2022-10-25T17:08:04.771Z,6.20
2022-10-25T17:24:21.567Z,16.42
2022-10-25T17:29:27.072Z,10.63
2022-10-25T17:34:34.635Z,10.23
2022-10-25T17:39:44.406Z,9.98
2022-10-25T17:44:49.447Z,9.55
2022-10-25T17:50:00.812Z,9.55
2022-10-25T17:55:10.215Z,9.88
2022-10-25T18:00:17.082Z,9.48
2022-10-25T18:05:25.316Z,9.95
2022-10-25T18:10:36.045Z,9.07
2022-10-25T18:15:41.328Z,11.02
2022-10-25T18:38:04.135Z,14.13
2022-10-25T18:43:11.724Z,13.07
2022-10-25T18:48:16.879Z,11.98
2022-10-25T18:53:22.349Z,10.57
2022-10-25T18:58:30.165Z,10.10
2022-10-25T19:03:35.205Z,18.58
2022-10-25T19:15:10.369Z,10.82
2022-10-25T19:20:15.457Z,10.13
2022-10-25T19:25:23.792Z,10.40
2022-10-25T19:30:35.462Z,10.60
2022-10-25T19:35:42.638Z,11.93
2022-10-25T19:40:50.218Z,11.70
2022-10-25T19:51:53.835Z,12.77
2022-10-25T19:56:59.160Z,11.73
2022-10-25T20:02:41.660Z,10.80
2022-10-25T20:07:49.879Z,9.70
2022-10-25T20:12:55.139Z,10.05
2022-10-25T20:18:01.328Z,11.60
2022-10-25T20:23:09.052Z,10.50
2022-10-25T20:31:25.600Z,10.68
2022-10-25T20:39:07.028Z,10.57
2022-10-25T20:44:14.974Z,12.02
2022-10-25T20:49:25.686Z,11.07
2022-10-25T21:00:29.560Z,12.05
2022-10-25T21:11:04.252Z,12.02
2022-10-25T21:32:53.279Z,12.45
2022-10-25T21:38:15.531Z,13.68
2022-10-25T21:43:20.599Z,13.50
2022-10-25T21:48:28.936Z,13.52
2022-10-25T21:53:34.150Z,12.77
2022-10-25T21:58:41.311Z,13.52
2022-10-25T22:03:49.209Z,12.38
2022-10-25T22:08:55.669Z,12.63
2022-10-25T22:14:02.391Z,13.57
2022-10-25T22:25:06.335Z,12.98
2022-10-25T22:30:12.906Z,12.10
2022-10-25T22:35:18.206Z,12.88
2022-10-25T22:40:26.497Z,12.55
2022-10-25T22:45:31.693Z,11.98
2022-10-25T22:50:37.223Z,13.18
2022-10-25T22:55:44.843Z,12.50
2022-10-25T23:00:49.895Z,15.38
2022-10-25T23:05:59.886Z,11.77
2022-10-25T23:11:09.555Z,11.60
2022-10-25T23:21:41.823Z,11.80
2022-10-25T23:26:49.446Z,13.13
2022-10-25T23:37:22.625Z,10.27
2022-10-25T23:43:07.309Z,9.75
2022-10-25T23:48:12.447Z,10.45
2022-10-25T23:53:17.495Z,10.88
2022-10-25T23:58:25.957Z,8.93
